Promised Land, New York
Current Conditions -  °F | °C
As of 7:56 PM on Saturday 20 Dec 2014 (Local Time) from KGON Reporting Station
Overcast Overcast  
Wind Chill: 29°   Ceiling: 4300
Heat Index: 34°   Visibility: 7mi
Dew Point: 27°   Wind: 6mph
Humidity: 75%   Direction: 360°N
Pressure: 30.27"   Gusts: NA
Location:  40.9764°N, 72.1316°W
Report Text: KGON 210056Z 36005KT 7SM OVC043 01/M03 A3027 RMK AO2 SLP249 T00111028
Loading
Personal Weather Stations






























Interactive Weather Map New forecast layout! Learn more

10-Day Weather Forecast

Advertisements
Track Severe Weather on mobile